createdAt,value
2023-03-31T00:03:46.437Z,77.66
2023-03-31T00:08:52.544Z,76.95
2023-03-31T00:13:55.739Z,77.13
2023-03-31T00:18:59.133Z,77.67
2023-03-31T00:24:23.322Z,78.02
2023-03-31T00:29:27.113Z,78.83
2023-03-31T00:34:30.433Z,79.52
2023-03-31T00:39:35.302Z,80.73
2023-03-31T00:45:00.169Z,81.06
2023-03-31T00:50:03.038Z,81.61
2023-03-31T00:55:17.004Z,77.95
2023-03-31T01:00:22.210Z,77.86
2023-03-31T01:05:54.865Z,78.19
2023-03-31T01:11:02.100Z,78.23
2023-03-31T01:16:05.172Z,79.17
2023-03-31T01:21:41.202Z,79.60
2023-03-31T01:26:49.934Z,80.21
2023-03-31T01:32:22.163Z,81.09
2023-03-31T01:37:49.410Z,82.06
2023-03-31T01:43:21.643Z,81.64
2023-03-31T01:48:34.247Z,81.93
2023-03-31T01:53:55.170Z,82.51
2023-03-31T01:59:18.154Z,81.87
2023-03-31T02:04:26.735Z,81.25
2023-03-31T02:09:36.577Z,80.99
2023-03-31T02:14:47.737Z,80.81
2023-03-31T02:19:53.732Z,80.35
2023-03-31T02:25:00.586Z,79.60
2023-03-31T02:30:05.089Z,79.45
2023-03-31T02:35:12.628Z,79.48
2023-03-31T02:40:27.913Z,78.89
2023-03-31T02:45:41.663Z,79.32
2023-03-31T02:50:59.917Z,79.75
2023-03-31T02:56:17.985Z,79.86
2023-03-31T03:01:44.015Z,80.08
2023-03-31T03:06:53.981Z,79.36
2023-03-31T03:11:58.535Z,79.65
2023-03-31T03:17:40.663Z,79.94
2023-03-31T03:22:43.525Z,79.32
2023-03-31T03:27:47.331Z,80.35
2023-03-31T03:32:50.781Z,79.97
2023-03-31T03:37:53.695Z,79.88
2023-03-31T03:42:56.506Z,79.59
2023-03-31T03:47:59.467Z,79.70
2023-03-31T03:53:02.762Z,79.27
2023-03-31T03:58:05.867Z,79.40
2023-03-31T04:03:08.917Z,79.40
2023-03-31T04:08:12.242Z,78.50
2023-03-31T04:13:19.127Z,79.15
2023-03-31T04:18:24.784Z,79.24
2023-03-31T04:23:27.624Z,78.25
2023-03-31T04:28:35.259Z,78.99
2023-03-31T04:33:40.107Z,79.19
2023-03-31T04:38:46.995Z,78.70
2023-03-31T04:43:50.215Z,78.76
2023-03-31T04:48:53.143Z,77.82
2023-03-31T04:53:56.071Z,77.77
2023-03-31T04:58:58.988Z,77.96
2023-03-31T05:04:02.505Z,77.74
2023-03-31T05:09:06.721Z,77.97
2023-03-31T05:14:09.507Z,77.78
2023-03-31T05:19:12.316Z,77.10
2023-03-31T05:24:15.230Z,77.20
2023-03-31T05:29:22.279Z,76.24
2023-03-31T05:34:44.215Z,75.97
2023-03-31T05:39:47.180Z,75.55
2023-03-31T05:44:50.109Z,75.41
2023-03-31T05:49:53.522Z,75.69
2023-03-31T05:54:56.345Z,74.51
2023-03-31T05:59:59.168Z,74.32
2023-03-31T06:05:02.175Z,74.32
2023-03-31T06:10:08.503Z,73.12
2023-03-31T06:15:11.909Z,72.78
2023-03-31T06:20:33.078Z,71.84
2023-03-31T06:25:50.399Z,71.25
2023-03-31T06:31:06.297Z,69.94
2023-03-31T06:36:11.038Z,70.19
2023-03-31T06:41:32.407Z,70.32
2023-03-31T06:46:35.627Z,70.90
2023-03-31T06:51:38.637Z,70.86
2023-03-31T06:56:41.561Z,70.55
2023-03-31T07:01:46.253Z,70.57
2023-03-31T07:06:49.354Z,70.49
2023-03-31T07:11:52.612Z,69.89
2023-03-31T07:17:14.413Z,70.03
2023-03-31T07:22:17.264Z,70.67
2023-03-31T07:27:20.384Z,70.25
2023-03-31T07:32:24.480Z,70.41
2023-03-31T07:37:28.889Z,70.36
2023-03-31T07:42:32.517Z,70.27
2023-03-31T07:47:35.803Z,70.57
2023-03-31T07:52:41.224Z,69.04
2023-03-31T07:57:46.593Z,68.46
2023-03-31T08:02:49.524Z,68.60
2023-03-31T08:07:52.483Z,66.78
2023-03-31T08:12:56.258Z,66.16
2023-03-31T08:17:59.777Z,66.64
2023-03-31T08:23:02.808Z,65.94
2023-03-31T08:28:07.105Z,66.22
2023-03-31T08:33:12.574Z,66.10
2023-03-31T08:38:15.728Z,66.00
2023-03-31T08:43:27.898Z,66.08
2023-03-31T08:48:45.422Z,65.33
2023-03-31T08:53:59.478Z,63.78
2023-03-31T08:59:03.070Z,63.81
2023-03-31T09:04:15.283Z,63.90
2023-03-31T09:09:28.155Z,64.85
2023-03-31T09:14:41.633Z,63.73
2023-03-31T09:19:57.024Z,63.43
2023-03-31T09:25:23.870Z,62.63
2023-03-31T09:30:32.159Z,62.61
2023-03-31T09:35:35.271Z,63.23
2023-03-31T09:40:40.440Z,63.41
2023-03-31T09:45:52.082Z,63.85
2023-03-31T09:51:08.285Z,62.75
2023-03-31T09:56:11.811Z,62.30
2023-03-31T10:01:16.520Z,61.57
2023-03-31T10:06:21.135Z,61.60
2023-03-31T10:11:25.319Z,61.04
2023-03-31T10:16:31.434Z,59.71
2023-03-31T10:21:38.768Z,58.70
2023-03-31T10:26:41.624Z,58.71
2023-03-31T10:31:44.697Z,58.25
2023-03-31T10:36:52.173Z,58.37
2023-03-31T10:41:55.149Z,58.24
2023-03-31T10:47:05.731Z,57.86
2023-03-31T10:52:43.542Z,58.53
2023-03-31T10:58:01.543Z,58.29
2023-03-31T11:03:21.132Z,59.40
2023-03-31T11:08:33.176Z,58.87
2023-03-31T11:13:46.154Z,59.00
2023-03-31T11:19:11.991Z,59.76
2023-03-31T11:24:21.106Z,59.64
2023-03-31T11:29:51.694Z,59.65
2023-03-31T11:35:04.805Z,59.18
2023-03-31T11:40:26.509Z,58.81
2023-03-31T11:45:50.838Z,58.94
2023-03-31T11:50:55.283Z,58.86
2023-03-31T11:55:58.473Z,59.38
2023-03-31T12:01:24.341Z,59.17
2023-03-31T12:06:47.570Z,58.80
2023-03-31T12:12:03.587Z,58.68
2023-03-31T12:17:11.874Z,59.02
2023-03-31T12:22:44.058Z,58.67
2023-03-31T12:27:50.219Z,59.55
2023-03-31T12:33:06.169Z,59.38
2023-03-31T12:38:28.111Z,58.90
2023-03-31T12:43:49.185Z,58.84
2023-03-31T12:48:54.811Z,58.10
2023-03-31T12:54:20.064Z,58.31
2023-03-31T12:59:33.853Z,59.17
2023-03-31T13:04:38.371Z,58.50
2023-03-31T13:10:15.371Z,58.59
2023-03-31T13:15:18.595Z,58.96
2023-03-31T13:20:38.340Z,59.69
2023-03-31T13:25:55.856Z,59.90
2023-03-31T13:31:07.828Z,60.57
2023-03-31T13:36:32.190Z,61.02
2023-03-31T13:42:02.437Z,61.20
2023-03-31T13:47:42.662Z,61.87
2023-03-31T13:53:48.614Z,62.06
2023-03-31T13:59:04.581Z,62.48
2023-03-31T14:04:26.071Z,62.44
2023-03-31T14:09:35.131Z,63.31
2023-03-31T14:14:41.336Z,63.14
2023-03-31T14:19:58.524Z,63.33
2023-03-31T14:25:22.834Z,63.88
2023-03-31T14:31:05.308Z,64.25
2023-03-31T14:36:16.133Z,64.51
2023-03-31T14:41:29.781Z,64.81
2023-03-31T14:46:36.614Z,65.03
2023-03-31T14:51:44.562Z,65.43
2023-03-31T14:56:55.342Z,65.52
2023-03-31T15:02:01.537Z,66.07
2023-03-31T15:07:05.326Z,66.67
2023-03-31T15:12:15.466Z,66.53
2023-03-31T15:17:40.316Z,66.49
2023-03-31T15:22:43.295Z,66.79
2023-03-31T15:28:11.922Z,67.21
2023-03-31T15:33:22.985Z,67.44
2023-03-31T15:38:31.456Z,67.44
2023-03-31T15:43:51.024Z,67.49
2023-03-31T15:48:56.061Z,67.40
2023-03-31T15:53:58.917Z,68.00
2023-03-31T15:59:07.513Z,68.14
2023-03-31T16:04:13.056Z,68.14
2023-03-31T16:09:53.388Z,68.22
2023-03-31T16:15:05.050Z,68.05
2023-03-31T16:20:11.580Z,68.46
2023-03-31T16:25:18.729Z,68.32
2023-03-31T16:30:33.455Z,68.56
2023-03-31T16:35:55.616Z,68.61
2023-03-31T16:40:59.239Z,69.23
2023-03-31T16:46:04.901Z,70.67
2023-03-31T16:51:07.736Z,70.93
2023-03-31T16:56:12.369Z,71.62
2023-03-31T17:01:15.276Z,72.00
2023-03-31T17:06:18.199Z,71.94
2023-03-31T17:11:21.701Z,71.67
2023-03-31T17:16:32.812Z,71.34
2023-03-31T17:21:48.324Z,70.86
2023-03-31T17:26:51.363Z,70.81
2023-03-31T17:31:54.371Z,70.00
2023-03-31T17:36:57.386Z,69.99
2023-03-31T17:42:01.151Z,69.80
2023-03-31T17:47:04.294Z,70.25
2023-03-31T17:52:07.154Z,70.55
2023-03-31T17:57:10.317Z,70.63
2023-03-31T18:02:13.375Z,71.01
2023-03-31T18:07:18.560Z,70.72
2023-03-31T18:12:21.422Z,70.34
2023-03-31T18:17:24.267Z,70.42
2023-03-31T18:22:27.585Z,69.80
2023-03-31T18:27:30.367Z,69.78
2023-03-31T18:32:34.385Z,70.17
2023-03-31T18:37:37.476Z,70.42
2023-03-31T18:42:59.798Z,70.30
2023-03-31T18:48:03.312Z,70.76
2023-03-31T18:53:06.755Z,70.93
2023-03-31T18:58:09.992Z,70.85
2023-03-31T19:03:13.912Z,71.47
2023-03-31T19:08:17.031Z,72.16
2023-03-31T19:13:19.876Z,72.88
2023-03-31T19:18:22.808Z,72.94
2023-03-31T19:23:26.704Z,73.24
2023-03-31T19:28:30.885Z,73.40
2023-03-31T19:33:34.150Z,73.25
2023-03-31T19:38:37.177Z,73.67
2023-03-31T19:43:58.744Z,73.55
2023-03-31T19:49:01.728Z,73.80
2023-03-31T19:54:04.995Z,73.98
2023-03-31T19:59:08.245Z,73.70
2023-03-31T20:04:12.555Z,72.85
2023-03-31T20:09:15.649Z,72.19
2023-03-31T20:14:18.467Z,71.31
2023-03-31T20:19:22.815Z,70.99
2023-03-31T20:24:27.561Z,70.97
2023-03-31T20:29:30.538Z,71.34
2023-03-31T20:34:34.291Z,71.34
2023-03-31T20:39:37.774Z,71.99
2023-03-31T20:44:41.318Z,71.84
2023-03-31T20:49:44.351Z,71.69
2023-03-31T20:54:47.288Z,71.27
2023-03-31T20:59:50.886Z,71.21
2023-03-31T21:04:53.830Z,71.63
2023-03-31T21:09:56.630Z,71.55
2023-03-31T21:14:59.572Z,71.37
2023-03-31T21:20:03.793Z,71.66
2023-03-31T21:25:25.606Z,71.83
2023-03-31T21:30:28.564Z,71.86
2023-03-31T21:35:50.904Z,71.92
2023-03-31T21:40:54.491Z,71.76
2023-03-31T21:45:59.380Z,71.99
2023-03-31T21:51:03.282Z,71.50
2023-03-31T21:56:06.282Z,71.63
2023-03-31T22:01:09.506Z,71.35
2023-03-31T22:06:31.071Z,71.33
2023-03-31T22:11:34.072Z,71.13
2023-03-31T22:16:37.242Z,71.35
2023-03-31T22:21:41.127Z,71.33
2023-03-31T22:26:44.004Z,71.24
2023-03-31T22:31:46.922Z,71.20
2023-03-31T22:36:49.829Z,71.28
2023-03-31T22:41:52.736Z,71.41
2023-03-31T22:46:56.156Z,71.41
2023-03-31T22:51:59.182Z,72.81
2023-03-31T22:57:02.306Z,73.19
2023-03-31T23:02:06.502Z,73.71
2023-03-31T23:07:09.397Z,73.81
2023-03-31T23:12:12.236Z,73.54
2023-03-31T23:17:15.203Z,73.81
2023-03-31T23:22:19.080Z,74.16
2023-03-31T23:27:22.404Z,74.88
2023-03-31T23:32:25.537Z,75.16
2023-03-31T23:37:28.493Z,74.84
2023-03-31T23:42:31.610Z,74.16
2023-03-31T23:47:34.729Z,73.95
2023-03-31T23:52:59.524Z,73.35
2023-03-31T23:58:03.622Z,73.03
